ADDS METAR Data INFO
IDs: Format: Raw Decoded Include TAF

Data at: 1250 UTC 19 Oct 2017

KTZR 191250Z 21005KT 10SM SKC 08/07 A3022
KTZR 191150Z 20004KT 10SM SKC 06/06 A3021
KTZR 191120Z 21005KT 10SM SKC 07/06 A3020
KTZR 191035Z AUTO 18004KT 10SM CLR 06/05 A3021 RMK AO2 T00620052
KTZR 191015Z AUTO 18004KT 10SM CLR 06/05 A3021 RMK AO2 T00620051
KTZR 190955Z AUTO 18003KT 10SM CLR 07/05 A3021 RMK AO2 T00650053
KTZR 190935Z AUTO 18004KT 10SM CLR 07/06 A3021 RMK AO2 T00730057
KTZR 190915Z AUTO 20004KT 10SM CLR 06/05 A3021 RMK AO2 T00640053
KTZR 190855Z AUTO 22004KT 10SM CLR 07/05 A3020 RMK AO2 T00660052
KTZR 190835Z AUTO 19004KT 10SM CLR 07/06 A3019 RMK AO2 T00730055
KTZR 190815Z AUTO 17005KT 10SM CLR 07/06 A3019 RMK AO2 T00730055
KTZR 190755Z AUTO 17004KT 10SM CLR 08/06 A3020 RMK AO2 T00780055
KTZR 190735Z AUTO 18004KT 10SM CLR 08/06 A3020 RMK AO2 T00800057
KTZR 190715Z AUTO 18003KT 10SM CLR 09/06 A3020 RMK AO2 T00900060
KTZR 190655Z AUTO 20003KT 10SM CLR 09/06 A3020 RMK AO2 T00890060
KTZR 190635Z AUTO 20004KT 10SM CLR 09/06 A3020 RMK AO2 T00870058
KTZR 190615Z AUTO 20005KT 10SM CLR 09/06 A3021 RMK AO2 T00900060
KTZR 190555Z AUTO 20004KT 10SM CLR 10/06 A3020 RMK AO2 T00950060 10135 20090 402050021
KTZR 190535Z AUTO 20004KT 10SM CLR 09/06 A3020 RMK AO2 T00900058
KTZR 190510Z AUTO 21004KT 10SM CLR 10/06 A3020 RMK AO2 T00980060
KTZR 190455Z AUTO 20004KT 10SM CLR 10/06 A3020 RMK AO2 T01000060
KTZR 190435Z AUTO 21004KT 10SM CLR 10/06 A3020 RMK AO2 T01000060
KTZR 190415Z AUTO 20004KT 10SM CLR 10/06 A3020 RMK AO2 T01040060
KTZR 190355Z AUTO 20004KT 10SM CLR 11/06 A3020 RMK AO2 T01140060
KTZR 190335Z AUTO 20005KT 10SM CLR 12/06 A3020 RMK AO2 T01170060
KTZR 190315Z AUTO 20005KT 10SM CLR 12/06 A3020 RMK AO2 T01180060
KTZR 190300Z AUTO 20005KT 10SM CLR 12/06 A3020 RMK AO2 T01200060
KTZR 190235Z AUTO 19006KT 10SM CLR 12/06 A3021 RMK AO2 T01220060
KTZR 190215Z AUTO 20005KT 10SM CLR 13/06 A3021 RMK AO2 T01250060
KTZR 190155Z AUTO 20005KT 10SM CLR 13/06 A3021 RMK AO2 T01250057
KTZR 190135Z AUTO 21005KT 10SM CLR 12/06 A3021 RMK AO2 T01230055
KTZR 190115Z AUTO 19005KT 10SM CLR 12/06 A3020 RMK AO2 T01230055
KTZR 190055Z AUTO 18005KT 10SM CLR 12/06 A3021 RMK AO2 T01180055
KTZR 190040Z AUTO 18005KT 10SM CLR 12/06 A3021 RMK AO2 T01230055
KTZR 190020Z AUTO 18004KT 10SM CLR 13/06 A3021 RMK AO2 T01260055
KTZR 182355Z AUTO 18005KT 10SM CLR 14/06 A3021 RMK AO2 T01350057 10205 20134
KTZR 182335Z AUTO 16005KT 10SM CLR 14/06 A3021 RMK AO2 T01370056
KTZR 182250Z 18004KT 10SM SKC 17/06 A3021
KTZR 182150Z 19008KT 10SM SKC 19/06 A3021
KTZR 182055Z 19009G15KT 10SM SKC 21/05 A3022
KTZR 181950Z 18010KT 10SM SKC 21/06 A3023
KTZR 181850Z 18007KT 10SM SKC 20/06 A3026
KTZR 181750Z 17008KT 10SM SKC 19/06 A3029
KTZR 181647Z 17008KT 10SM SKC 18/06 A3033
KTZR 181547Z 19004KT 10SM SKC 17/07 A3033
KTZR 181447Z 19004KT 10SM SKC 14/07 A3034
KTZR 181347Z 17004KT 10SM SKC 11/07 A3034
KTZR 181247Z 00000KT 10SM SKC 05/05 A3034
KTZR 181147Z 00000KT 10SM SKC 02/02 A3033
KTZR 181125Z 00000KT 10SM SKC 03/03 A3032
KTZR 181035Z AUTO 00000KT 10SM CLR 03/03 A3031 RMK AO2 T00280027
KTZR 181015Z AUTO 00000KT 10SM CLR 03/03 A3031 RMK AO2 T00310026
KTZR 180955Z AUTO 00000KT 10SM CLR 03/03 A3030 RMK AO2 T00300028
KTZR 180935Z AUTO 00000KT 10SM CLR 03/03 A3030 RMK AO2 T00340032
KTZR 180915Z AUTO 00000KT 10SM CLR 03/03 A3030 RMK AO2 T00320029
KTZR 180855Z AUTO 00000KT 10SM CLR 04/03 A3030 RMK AO2 T00420034
KTZR 180835Z AUTO 00000KT 10SM CLR 04/04 A3029 RMK AO2 T00420037
KTZR 180815Z AUTO 00000KT 10SM CLR 05/04 A3029 RMK AO2 T00450039
KTZR 180755Z AUTO 17003KT 10SM CLR 04/04 A3029 RMK AO2 T00380035
KTZR 180735Z AUTO 00000KT 10SM CLR 04/03 A3029 RMK AO2 T00370033
KTZR 180715Z AUTO 00000KT 10SM CLR 04/04 A3029 RMK AO2 T00430035
KTZR 180655Z AUTO 00000KT 10SM CLR 05/04 A3029 RMK AO2 T00480041
KTZR 180635Z AUTO 00000KT 10SM CLR 06/04 A3030 RMK AO2 T00590040
KTZR 180615Z AUTO 00000KT 10SM CLR 05/04 A3029 RMK AO2 T00530040
KTZR 180555Z AUTO 17003KT 10SM CLR 05/04 A3029 RMK AO2 T00520040 10127 20051 401880017
KTZR 180535Z AUTO 00000KT 10SM CLR 06/05 A3029 RMK AO2 T00590045
KTZR 180515Z AUTO 00000KT 10SM CLR 06/04 A3029 RMK AO2 T00580044
KTZR 180500Z AUTO 00000KT 10SM CLR 06/04 A3029 RMK AO2 T00640043
KTZR 180440Z AUTO 19003KT 10SM CLR 08/05 A3029 RMK AO2 T00750045
KTZR 180415Z AUTO 22004KT 10SM CLR 08/05 A3029 RMK AO2 T00750045
KTZR 180355Z AUTO 21005KT 10SM CLR 07/05 A3029 RMK AO2 T00680045
KTZR 180335Z AUTO 21005KT 10SM CLR 08/05 A3029 RMK AO2 T00780045
KTZR 180315Z AUTO 21004KT 10SM CLR 08/05 A3029 RMK AO2 T00820045
KTZR 180300Z AUTO 21004KT 10SM CLR 08/05 A3029 RMK AO2 T00840045
KTZR 180235Z AUTO 21004KT 10SM CLR 08/05 A3028 RMK AO2 T00820046
KTZR 180220Z AUTO 21004KT 10SM CLR 09/05 A3028 RMK AO2 T00870046
KTZR 180155Z AUTO 21003KT 10SM CLR 08/05 A3027 RMK AO2 T00800047
KTZR 180130Z AUTO 22004KT 10SM CLR 10/05 A3027 RMK AO2 T00990047
KTZR 180115Z AUTO 21004KT 10SM CLR 10/05 A3026 RMK AO2 T01020046
KTZR 180055Z AUTO 21004KT 10SM CLR 10/05 A3026 RMK AO2 T01040047